createdAt,value
2022-12-27T00:00:10.507Z,101884.00
2022-12-27T00:02:38.631Z,101888.00
2022-12-27T00:05:08.902Z,101890.00
2022-12-27T00:07:36.240Z,101901.00
2022-12-27T00:10:05.062Z,101899.00
2022-12-27T00:12:32.663Z,101891.00
2022-12-27T00:14:59.955Z,101899.00
2022-12-27T00:17:28.136Z,101912.00
2022-12-27T00:19:55.254Z,101901.00
2022-12-27T00:22:22.478Z,101885.00
2022-12-27T00:24:49.818Z,101904.00
2022-12-27T00:27:17.172Z,101912.00
2022-12-27T00:29:44.316Z,101907.00
2022-12-27T00:32:11.406Z,101906.00
2022-12-27T00:34:38.521Z,101917.00
2022-12-27T00:37:05.695Z,101908.00
2022-12-27T00:39:33.033Z,101909.00
2022-12-27T00:42:00.172Z,101913.00
2022-12-27T00:44:27.350Z,101913.00
2022-12-27T00:46:54.492Z,101902.00
2022-12-27T00:49:21.692Z,101922.00
2022-12-27T00:51:48.897Z,101919.00
2022-12-27T00:54:16.209Z,101912.00
2022-12-27T00:56:43.428Z,101906.00
2022-12-27T00:59:12.398Z,101914.00
2022-12-27T01:01:39.906Z,101920.00
2022-12-27T01:04:07.398Z,101918.00
2022-12-27T01:06:35.757Z,101921.00
2022-12-27T01:09:04.614Z,101919.00
2022-12-27T01:11:33.600Z,101926.00
2022-12-27T01:14:04.175Z,101923.00
2022-12-27T01:16:32.907Z,101922.00
2022-12-27T01:19:01.134Z,101931.00
2022-12-27T01:21:30.958Z,101933.00
2022-12-27T01:24:01.183Z,101936.00
2022-12-27T01:26:28.526Z,101922.00
2022-12-27T01:28:55.680Z,101931.00
2022-12-27T01:31:28.332Z,101930.00
2022-12-27T01:34:00.641Z,101941.00
2022-12-27T01:36:30.483Z,101935.00
2022-12-27T01:38:59.655Z,101948.00
2022-12-27T01:41:55.248Z,101941.00
2022-12-27T01:44:40.542Z,101947.00
2022-12-27T01:47:19.526Z,101954.00
2022-12-27T01:50:18.355Z,101958.00
2022-12-27T01:53:13.036Z,101954.00
2022-12-27T01:55:58.999Z,101959.00
2022-12-27T01:58:48.969Z,101963.00
2022-12-27T02:01:38.557Z,101973.00
2022-12-27T02:04:20.806Z,101982.00
2022-12-27T02:06:49.302Z,101970.00
2022-12-27T02:09:33.443Z,101979.00
2022-12-27T02:12:03.030Z,101993.00
2022-12-27T02:14:35.322Z,101995.00
2022-12-27T02:17:13.495Z,101991.00
2022-12-27T02:19:55.383Z,101994.00
2022-12-27T02:23:18.169Z,102002.00
2022-12-27T02:25:51.243Z,101999.00
2022-12-27T02:28:33.794Z,101994.00
2022-12-27T02:31:16.541Z,101990.00
2022-12-27T02:33:52.139Z,101996.00
2022-12-27T02:36:31.771Z,101994.00
2022-12-27T02:39:02.909Z,101987.00
2022-12-27T02:41:53.884Z,101995.00
2022-12-27T02:44:40.407Z,102003.00
2022-12-27T02:47:44.049Z,101997.00
2022-12-27T02:50:33.087Z,102002.00
2022-12-27T02:53:40.100Z,101999.00
2022-12-27T02:57:01.529Z,102008.00
2022-12-27T03:00:31.579Z,101996.00
2022-12-27T03:03:28.884Z,101995.00
2022-12-27T03:06:50.754Z,101996.00
2022-12-27T03:10:07.526Z,101988.00
2022-12-27T03:13:29.668Z,101989.00
2022-12-27T03:16:17.929Z,101989.00
2022-12-27T03:19:10.989Z,101988.00
2022-12-27T03:22:03.915Z,101989.00
2022-12-27T03:24:56.908Z,101987.00
2022-12-27T03:27:32.292Z,102000.00
2022-12-27T03:30:24.097Z,102009.00
2022-12-27T03:33:15.198Z,102008.00
2022-12-27T03:36:17.253Z,102009.00
2022-12-27T03:39:01.905Z,102023.00
2022-12-27T03:42:00.967Z,102013.00
2022-12-27T03:44:28.567Z,102007.00
2022-12-27T03:47:22.900Z,102011.00
2022-12-27T03:50:08.986Z,102003.00
2022-12-27T03:52:43.008Z,102000.00
2022-12-27T03:55:12.084Z,102009.00
2022-12-27T03:57:40.254Z,102008.00
2022-12-27T04:00:08.305Z,102007.00
2022-12-27T04:02:35.714Z,102003.00
2022-12-27T04:05:03.216Z,102017.00
2022-12-27T04:07:32.810Z,102017.00
2022-12-27T04:10:18.144Z,102020.00
2022-12-27T04:13:04.103Z,102011.00
2022-12-27T04:15:51.606Z,102004.00
2022-12-27T04:18:38.741Z,102004.00
2022-12-27T04:21:24.362Z,102002.00
2022-12-27T04:24:10.228Z,102007.00
2022-12-27T04:26:55.943Z,102012.00
2022-12-27T04:29:41.696Z,101999.00
2022-12-27T04:32:27.473Z,102006.00
2022-12-27T04:34:57.632Z,102009.00
2022-12-27T04:37:24.813Z,102008.00
2022-12-27T04:40:10.580Z,102019.00
2022-12-27T04:42:56.304Z,102005.00
2022-12-27T04:45:42.531Z,102019.00
2022-12-27T04:48:33.975Z,102026.00
2022-12-27T04:51:19.925Z,102021.00
2022-12-27T04:54:05.940Z,102022.00
2022-12-27T04:56:33.085Z,102026.00
2022-12-27T04:59:18.745Z,102035.00
2022-12-27T05:02:04.214Z,102032.00
2022-12-27T05:04:38.751Z,102030.00
2022-12-27T05:07:29.024Z,102033.00
2022-12-27T05:10:16.765Z,102030.00
2022-12-27T05:13:02.630Z,102043.00
2022-12-27T05:15:29.835Z,102048.00
2022-12-27T05:18:00.138Z,102042.00
2022-12-27T05:20:27.274Z,102045.00
2022-12-27T05:23:13.046Z,102043.00
2022-12-27T05:25:45.734Z,102041.00
2022-12-27T05:28:13.906Z,102053.00
2022-12-27T05:30:44.025Z,102063.00
2022-12-27T05:33:11.825Z,102065.00
2022-12-27T05:35:39.421Z,102075.00
2022-12-27T05:38:07.074Z,102076.00
2022-12-27T05:40:34.606Z,102077.00
2022-12-27T05:43:03.982Z,102086.00
2022-12-27T05:45:31.256Z,102076.00
2022-12-27T05:48:00.013Z,102085.00
2022-12-27T05:50:28.071Z,102089.00
2022-12-27T05:52:56.061Z,102089.00
2022-12-27T05:55:23.618Z,102085.00
2022-12-27T05:57:50.731Z,102086.00
2022-12-27T06:00:18.084Z,102083.00
2022-12-27T06:02:45.543Z,102086.00
2022-12-27T06:05:12.780Z,102084.00
2022-12-27T06:07:40.347Z,102089.00
2022-12-27T06:10:09.565Z,102095.00
2022-12-27T06:12:37.951Z,102102.00
2022-12-27T06:15:07.108Z,102098.00
2022-12-27T06:17:34.721Z,102098.00
2022-12-27T06:20:01.821Z,102101.00
2022-12-27T06:22:29.038Z,102099.00
2022-12-27T06:24:56.106Z,102103.00
2022-12-27T06:27:23.205Z,102105.00
2022-12-27T06:29:50.288Z,102098.00
2022-12-27T06:32:17.963Z,102097.00
2022-12-27T06:34:45.839Z,102107.00
2022-12-27T06:37:12.995Z,102093.00
2022-12-27T06:39:40.064Z,102097.00
2022-12-27T06:42:07.342Z,102113.00
2022-12-27T06:44:34.455Z,102103.00
2022-12-27T06:47:01.728Z,102122.00
2022-12-27T06:49:29.526Z,102122.00
2022-12-27T06:51:59.760Z,102130.00
2022-12-27T06:54:27.570Z,102119.00
2022-12-27T06:56:56.994Z,102126.00
2022-12-27T06:59:24.759Z,102125.00
2022-12-27T07:01:52.034Z,102133.00
2022-12-27T07:04:19.399Z,102122.00
2022-12-27T07:06:46.573Z,102127.00
2022-12-27T07:09:13.762Z,102136.00
2022-12-27T07:11:40.903Z,102141.00
2022-12-27T07:14:10.753Z,102150.00
2022-12-27T07:16:38.037Z,102142.00
2022-12-27T07:19:05.616Z,102153.00
2022-12-27T07:21:32.954Z,102151.00
2022-12-27T07:24:00.214Z,102160.00
2022-12-27T07:26:30.505Z,102155.00
2022-12-27T07:29:01.211Z,102165.00
2022-12-27T07:31:32.562Z,102176.00
2022-12-27T07:34:02.957Z,102176.00
2022-12-27T07:36:40.232Z,102181.00
2022-12-27T07:39:08.469Z,102178.00
2022-12-27T07:41:36.381Z,102181.00
2022-12-27T07:44:04.465Z,102185.00
2022-12-27T07:46:33.022Z,102179.00
2022-12-27T07:49:00.551Z,102174.00
2022-12-27T07:51:29.873Z,102184.00
2022-12-27T07:53:57.057Z,102179.00
2022-12-27T07:56:28.571Z,102171.00
2022-12-27T07:58:58.868Z,102183.00
2022-12-27T08:01:30.163Z,102183.00
2022-12-27T08:03:57.532Z,102187.00
2022-12-27T08:06:33.217Z,102183.00
2022-12-27T08:09:05.602Z,102180.00
2022-12-27T08:11:32.731Z,102187.00
2022-12-27T08:13:59.903Z,102191.00
2022-12-27T08:16:27.809Z,102170.00
2022-12-27T08:18:55.428Z,102187.00
2022-12-27T08:21:23.877Z,102190.00
2022-12-27T08:23:51.407Z,102198.00
2022-12-27T08:26:18.520Z,102200.00
2022-12-27T08:28:45.865Z,102196.00
2022-12-27T08:31:14.265Z,102183.00
2022-12-27T08:33:42.272Z,102196.00
2022-12-27T08:36:45.342Z,102191.00
2022-12-27T08:39:00.156Z,102183.00
2022-12-27T08:41:28.992Z,102189.00
2022-12-27T08:43:56.162Z,102186.00
2022-12-27T08:46:23.279Z,102190.00
2022-12-27T08:48:51.769Z,102193.00
2022-12-27T08:51:30.256Z,102205.00
2022-12-27T08:54:02.964Z,102195.00
2022-12-27T08:56:30.199Z,102195.00
2022-12-27T08:58:57.355Z,102207.00
2022-12-27T09:01:25.925Z,102207.00
2022-12-27T09:03:53.854Z,102207.00
2022-12-27T09:06:24.849Z,102205.00
2022-12-27T09:08:56.127Z,102202.00
2022-12-27T09:11:33.472Z,102198.00
2022-12-27T09:14:04.115Z,102201.00
2022-12-27T09:16:34.333Z,102186.00
2022-12-27T09:19:02.233Z,102201.00
2022-12-27T09:21:33.262Z,102205.00
2022-12-27T09:24:00.850Z,102201.00
2022-12-27T09:26:30.773Z,102213.00
2022-12-27T09:28:59.666Z,102206.00
2022-12-27T09:31:27.750Z,102209.00
2022-12-27T09:33:58.543Z,102186.00
2022-12-27T09:36:29.171Z,102181.00
2022-12-27T09:38:58.709Z,102193.00
2022-12-27T09:45:26.161Z,102215.00
2022-12-27T09:48:04.993Z,102215.00
2022-12-27T09:50:42.489Z,102207.00
2022-12-27T09:53:17.472Z,102214.00
2022-12-27T09:55:57.640Z,102215.00
2022-12-27T09:58:42.791Z,102206.00
2022-12-27T10:01:28.917Z,102207.00
2022-12-27T10:03:56.503Z,102203.00
2022-12-27T10:06:50.707Z,102198.00
2022-12-27T10:09:59.639Z,102191.00
2022-12-27T10:13:02.394Z,102208.00
2022-12-27T10:16:02.772Z,102206.00
2022-12-27T10:19:17.235Z,102206.00
2022-12-27T10:22:10.088Z,102190.00
2022-12-27T10:24:51.782Z,102194.00
2022-12-27T10:27:25.776Z,102196.00
2022-12-27T10:29:55.838Z,102177.00
2022-12-27T10:32:23.659Z,102185.00
2022-12-27T10:35:02.850Z,102187.00
2022-12-27T10:37:31.276Z,102191.00
2022-12-27T10:40:11.128Z,102197.00
2022-12-27T10:43:05.294Z,102191.00
2022-12-27T10:45:39.824Z,102191.00
2022-12-27T10:48:25.132Z,102184.00
2022-12-27T10:51:09.079Z,102193.00
2022-12-27T10:53:48.413Z,102190.00
2022-12-27T10:56:29.257Z,102181.00
2022-12-27T10:59:17.106Z,102177.00
2022-12-27T11:01:46.811Z,102178.00
2022-12-27T11:04:20.061Z,102176.00
2022-12-27T11:07:13.690Z,102171.00
2022-12-27T11:09:50.420Z,102164.00
2022-12-27T11:12:32.214Z,102161.00
2022-12-27T11:15:17.822Z,102170.00
2022-12-27T11:17:56.635Z,102178.00
2022-12-27T11:20:40.468Z,102178.00
2022-12-27T11:23:10.610Z,102181.00
2022-12-27T11:26:02.795Z,102181.00
2022-12-27T11:28:40.084Z,102185.00
2022-12-27T11:31:14.216Z,102180.00
2022-12-27T11:33:58.329Z,102180.00
2022-12-27T11:36:40.967Z,102180.00
2022-12-27T11:39:39.229Z,102192.00
2022-12-27T11:42:28.911Z,102174.00
2022-12-27T11:45:29.495Z,102175.00
2022-12-27T11:48:04.026Z,102176.00
2022-12-27T11:50:46.976Z,102185.00
2022-12-27T11:53:31.868Z,102187.00
2022-12-27T11:56:32.410Z,102177.00
2022-12-27T11:59:42.498Z,102180.00
2022-12-27T12:02:43.397Z,102176.00
2022-12-27T12:05:42.040Z,102179.00
2022-12-27T12:08:32.475Z,102163.00
2022-12-27T12:11:43.124Z,102166.00
2022-12-27T12:14:30.975Z,102158.00
2022-12-27T12:17:35.883Z,102149.00
2022-12-27T12:20:42.288Z,102161.00
2022-12-27T12:24:20.074Z,102144.00
2022-12-27T12:27:30.467Z,102153.00
2022-12-27T12:30:25.450Z,102141.00
2022-12-27T12:33:38.173Z,102130.00
2022-12-27T12:36:34.672Z,102128.00
2022-12-27T12:39:33.613Z,102119.00
2022-12-27T12:42:26.890Z,102109.00
2022-12-27T12:45:37.495Z,102125.00
2022-12-27T12:48:26.072Z,102127.00
2022-12-27T12:51:10.992Z,102117.00
2022-12-27T12:54:03.420Z,102115.00
2022-12-27T12:56:43.514Z,102092.00
2022-12-27T12:59:28.521Z,102097.00
2022-12-27T13:02:14.089Z,102104.00
2022-12-27T13:05:23.648Z,102104.00
2022-12-27T13:08:13.021Z,102100.00
2022-12-27T13:10:55.312Z,102096.00
2022-12-27T13:14:14.247Z,102089.00
2022-12-27T13:17:05.022Z,102081.00
2022-12-27T13:20:15.785Z,102083.00
2022-12-27T13:23:04.346Z,102076.00
2022-12-27T13:25:46.732Z,102073.00
2022-12-27T13:28:46.444Z,102071.00
2022-12-27T13:31:45.601Z,102052.00
2022-12-27T13:34:40.743Z,102055.00
2022-12-27T13:37:28.150Z,102054.00
2022-12-27T13:40:08.125Z,102052.00
2022-12-27T13:43:12.737Z,102042.00
2022-12-27T13:46:03.505Z,102049.00
2022-12-27T13:48:45.511Z,102033.00
2022-12-27T13:51:35.534Z,102036.00
2022-12-27T13:54:29.967Z,102033.00
2022-12-27T13:57:58.010Z,102037.00
2022-12-27T14:00:36.565Z,102035.00
2022-12-27T14:06:23.684Z,102035.00
2022-12-27T14:09:12.074Z,102025.00
2022-12-27T14:12:07.880Z,102013.00
2022-12-27T14:14:39.647Z,102011.00
2022-12-27T14:17:15.746Z,102006.00
2022-12-27T14:19:54.673Z,102011.00
2022-12-27T14:22:58.944Z,102007.00
2022-12-27T14:26:17.807Z,102008.00
2022-12-27T14:29:24.368Z,101999.00
2022-12-27T14:32:06.674Z,102006.00
2022-12-27T14:35:22.459Z,101999.00
2022-12-27T14:38:30.559Z,101989.00
2022-12-27T14:41:00.296Z,101983.00
2022-12-27T14:43:42.172Z,101999.00
2022-12-27T14:47:02.098Z,101990.00
2022-12-27T14:50:21.337Z,102003.00
2022-12-27T14:52:54.145Z,102004.00
2022-12-27T14:55:39.914Z,102003.00
2022-12-27T14:58:38.119Z,102011.00
2022-12-27T15:01:44.214Z,102009.00
2022-12-27T15:04:46.432Z,102007.00
2022-12-27T15:08:06.527Z,102009.00
2022-12-27T15:10:55.368Z,101999.00
2022-12-27T15:13:52.088Z,101986.00
2022-12-27T15:16:54.637Z,101986.00
2022-12-27T15:20:10.114Z,101982.00
2022-12-27T15:22:40.043Z,101979.00
2022-12-27T15:26:06.951Z,101983.00
2022-12-27T15:29:19.692Z,101977.00
2022-12-27T15:32:17.497Z,101978.00
2022-12-27T15:35:29.637Z,101981.00
2022-12-27T15:38:18.833Z,101980.00
2022-12-27T15:41:08.354Z,101979.00
2022-12-27T15:44:28.790Z,101985.00
2022-12-27T15:47:22.439Z,101974.00
2022-12-27T15:50:25.783Z,101975.00
2022-12-27T15:53:29.099Z,101971.00
2022-12-27T15:56:43.667Z,101969.00
2022-12-27T15:59:45.941Z,101967.00
2022-12-27T16:02:31.447Z,101974.00
2022-12-27T16:05:25.964Z,101968.00
2022-12-27T16:07:59.947Z,101970.00
2022-12-27T16:10:33.527Z,101971.00
2022-12-27T16:13:09.606Z,101968.00
2022-12-27T16:15:52.845Z,101978.00
2022-12-27T16:18:19.845Z,101970.00
2022-12-27T16:21:05.072Z,101964.00
2022-12-27T16:23:42.633Z,101970.00
2022-12-27T16:26:29.675Z,101976.00
2022-12-27T16:29:12.026Z,101974.00
2022-12-27T16:31:45.859Z,101966.00
2022-12-27T16:34:25.453Z,101961.00
2022-12-27T16:36:56.870Z,101968.00
2022-12-27T16:40:00.430Z,101972.00
2022-12-27T16:42:56.412Z,101965.00
2022-12-27T16:45:39.008Z,101971.00
2022-12-27T16:48:39.792Z,101960.00
2022-12-27T16:51:42.065Z,101948.00
2022-12-27T16:54:45.428Z,101953.00
2022-12-27T16:57:26.327Z,101950.00
2022-12-27T17:00:05.524Z,101945.00
2022-12-27T17:02:46.157Z,101951.00
2022-12-27T17:05:16.343Z,101948.00
2022-12-27T17:07:56.152Z,101947.00
2022-12-27T17:10:35.897Z,101955.00
2022-12-27T17:13:11.435Z,101951.00
2022-12-27T17:15:49.516Z,101952.00
2022-12-27T17:18:58.063Z,101947.00
2022-12-27T17:21:41.486Z,101940.00
2022-12-27T17:24:17.410Z,101948.00
2022-12-27T17:27:09.670Z,101937.00
2022-12-27T17:30:01.161Z,101935.00
2022-12-27T17:32:53.240Z,101933.00
2022-12-27T17:35:51.839Z,101939.00
2022-12-27T17:38:57.066Z,101934.00
2022-12-27T17:41:46.542Z,101934.00
2022-12-27T17:44:53.321Z,101930.00
2022-12-27T17:47:26.132Z,101930.00
2022-12-27T17:49:54.162Z,101916.00
2022-12-27T17:52:46.462Z,101921.00
2022-12-27T17:55:41.364Z,101926.00
2022-12-27T17:58:12.651Z,101923.00
2022-12-27T18:00:55.043Z,101916.00
2022-12-27T18:03:26.189Z,101919.00
2022-12-27T18:06:12.700Z,101911.00
2022-12-27T18:08:40.478Z,101909.00
2022-12-27T18:11:10.528Z,101899.00
2022-12-27T18:13:49.608Z,101905.00
2022-12-27T18:16:26.943Z,101898.00
2022-12-27T18:19:00.121Z,101895.00
2022-12-27T18:21:30.149Z,101902.00
2022-12-27T18:23:58.357Z,101909.00
2022-12-27T18:26:42.906Z,101893.00
2022-12-27T18:29:12.370Z,101891.00
2022-12-27T18:31:53.573Z,101888.00
2022-12-27T18:34:32.471Z,101894.00
2022-12-27T18:37:21.224Z,101886.00
2022-12-27T18:39:57.744Z,101883.00
2022-12-27T18:42:51.374Z,101881.00
2022-12-27T18:45:27.252Z,101877.00
2022-12-27T18:48:02.629Z,101874.00
2022-12-27T18:50:33.831Z,101871.00
2022-12-27T18:53:24.135Z,101877.00
2022-12-27T18:56:14.058Z,101876.00
2022-12-27T18:59:02.147Z,101860.00
2022-12-27T19:01:44.787Z,101871.00
2022-12-27T19:04:14.994Z,101858.00
2022-12-27T19:07:06.601Z,101847.00
2022-12-27T19:09:52.544Z,101845.00
2022-12-27T19:12:39.306Z,101850.00
2022-12-27T19:15:43.474Z,101850.00
2022-12-27T19:18:38.676Z,101832.00
2022-12-27T19:21:07.251Z,101839.00
2022-12-27T19:23:43.227Z,101833.00
2022-12-27T19:26:16.434Z,101829.00
2022-12-27T19:29:08.352Z,101826.00
2022-12-27T19:31:41.975Z,101823.00
2022-12-27T19:34:17.563Z,101822.00
2022-12-27T19:36:46.903Z,101816.00
2022-12-27T19:39:23.889Z,101825.00
2022-12-27T19:41:52.404Z,101806.00
2022-12-27T19:44:22.896Z,101814.00
2022-12-27T19:46:50.233Z,101803.00
2022-12-27T19:49:45.876Z,101802.00
2022-12-27T19:52:09.195Z,101804.00
2022-12-27T19:54:36.598Z,101800.00
2022-12-27T19:57:03.615Z,101800.00
2022-12-27T19:59:30.884Z,101787.00
2022-12-27T20:02:00.714Z,101795.00
2022-12-27T20:04:27.995Z,101787.00
2022-12-27T20:06:55.753Z,101778.00
2022-12-27T20:09:22.796Z,101782.00
2022-12-27T20:11:50.337Z,101778.00
2022-12-27T20:14:18.070Z,101770.00
2022-12-27T20:16:47.402Z,101774.00
2022-12-27T20:19:18.165Z,101766.00
2022-12-27T20:21:46.109Z,101762.00
2022-12-27T20:24:13.977Z,101767.00
2022-12-27T20:26:42.500Z,101751.00
2022-12-27T20:29:11.309Z,101745.00
2022-12-27T20:31:44.567Z,101745.00
2022-12-27T20:34:13.111Z,101751.00
2022-12-27T20:36:41.646Z,101749.00
2022-12-27T20:39:09.830Z,101747.00
2022-12-27T20:41:37.642Z,101734.00
2022-12-27T20:44:05.490Z,101726.00
2022-12-27T20:46:32.876Z,101730.00
2022-12-27T20:49:03.391Z,101739.00
2022-12-27T20:51:33.692Z,101734.00
2022-12-27T20:54:05.777Z,101725.00
2022-12-27T20:56:34.332Z,101725.00
2022-12-27T20:59:02.251Z,101726.00
2022-12-27T21:01:29.688Z,101709.00
2022-12-27T21:03:57.547Z,101723.00
2022-12-27T21:06:28.411Z,101712.00
2022-12-27T21:08:57.793Z,101715.00
2022-12-27T21:11:31.787Z,101712.00
2022-12-27T21:14:01.532Z,101698.00
2022-12-27T21:16:32.170Z,101706.00
2022-12-27T21:19:03.648Z,101707.00
2022-12-27T21:21:33.251Z,101703.00
2022-12-27T21:24:00.895Z,101688.00
2022-12-27T21:26:35.979Z,101692.00
2022-12-27T21:29:07.682Z,101688.00
2022-12-27T21:31:36.031Z,101683.00
2022-12-27T21:34:04.791Z,101680.00
2022-12-27T21:36:34.203Z,101678.00
2022-12-27T21:39:04.421Z,101671.00
2022-12-27T21:41:38.593Z,101681.00
2022-12-27T21:44:06.515Z,101666.00
2022-12-27T21:46:41.026Z,101664.00
2022-12-27T21:49:13.377Z,101655.00
2022-12-27T21:51:42.813Z,101645.00
2022-12-27T21:54:10.919Z,101650.00
2022-12-27T21:56:39.489Z,101633.00
2022-12-27T21:59:11.194Z,101641.00
2022-12-27T22:01:49.578Z,101650.00
2022-12-27T22:04:21.412Z,101642.00
2022-12-27T22:06:49.186Z,101643.00
2022-12-27T22:09:16.970Z,101634.00
2022-12-27T22:11:44.229Z,101626.00
2022-12-27T22:14:12.025Z,101614.00
2022-12-27T22:16:40.178Z,101603.00
2022-12-27T22:19:13.089Z,101609.00
2022-12-27T22:21:42.744Z,101607.00
2022-12-27T22:24:19.424Z,101607.00
2022-12-27T22:26:48.754Z,101606.00
2022-12-27T22:29:16.243Z,101595.00
2022-12-27T22:31:43.518Z,101587.00
2022-12-27T22:34:13.124Z,101577.00
2022-12-27T22:36:40.276Z,101581.00
2022-12-27T22:39:07.591Z,101579.00
2022-12-27T22:41:37.194Z,101563.00
2022-12-27T22:44:08.454Z,101565.00
2022-12-27T22:47:24.075Z,101564.00
2022-12-27T22:49:23.430Z,101557.00
2022-12-27T22:51:50.631Z,101547.00
2022-12-27T22:54:17.986Z,101553.00
2022-12-27T22:56:45.098Z,101537.00
2022-12-27T22:59:16.445Z,101532.00
2022-12-27T23:01:45.902Z,101530.00
2022-12-27T23:04:14.464Z,101520.00
2022-12-27T23:06:42.969Z,101519.00
2022-12-27T23:09:10.600Z,101508.00
2022-12-27T23:11:41.470Z,101506.00
2022-12-27T23:14:16.896Z,101505.00
2022-12-27T23:16:49.720Z,101501.00
2022-12-27T23:19:20.677Z,101492.00
2022-12-27T23:21:49.301Z,101495.00
2022-12-27T23:24:19.609Z,101492.00
2022-12-27T23:26:46.960Z,101483.00
2022-12-27T23:29:15.510Z,101490.00
2022-12-27T23:31:55.434Z,101477.00
2022-12-27T23:34:28.575Z,101465.00
2022-12-27T23:36:57.638Z,101454.00
2022-12-27T23:39:25.507Z,101458.00
2022-12-27T23:41:52.819Z,101463.00
2022-12-27T23:44:33.280Z,101462.00
2022-12-27T23:47:06.228Z,101450.00
2022-12-27T23:49:34.179Z,101446.00
2022-12-27T23:52:01.915Z,101442.00
2022-12-27T23:54:29.450Z,101437.00
2022-12-27T23:56:56.629Z,101445.00
2022-12-27T23:59:23.860Z,101437.00
